Marcel — ONDP — position and weather

sailwx.info

Track history (hours):
 
Tides and Currents Weather Stations Pressure Air Temp Water Temp Dewpoint Dewpoint Depression Visibility Wind Speed Wind Dir Waves Ship Positions

Marcel

Last reported at 2017-Feb-26 10:30 UTC. Time now 2017-Feb-26 10:34 UTC.
Position N 51°54' E 004°20'.

Length 88 m; draft 5.5 m.

Type: Cargo ship. MMSI: 205439000.

Date/timePositionNaut miles runAvg speedWind from/ knotsBaromVisibWave heightAir tempDewpointWater temp
2017-Feb-26 10:30N 51°54' E 004°20'0 0.0
2017-Feb-26 09:27N 51°54' E 004°20'0 0.0
2017-Feb-26 08:33N 51°54' E 004°20'0 0.0
2017-Feb-26 07:29N 51°54' E 004°20'0 0.0
2017-Feb-26 06:30N 51°54' E 004°20'0 0.0
2017-Feb-26 05:33N 51°54' E 004°20'0 0.0
2017-Feb-26 04:32N 51°54' E 004°20'0 0.0
2017-Feb-26 03:29N 51°54' E 004°20'0 0.0
2017-Feb-26 02:32N 51°54' E 004°20'0 0.0
2017-Feb-26 01:32N 51°54' E 004°20'0 0.0
2017-Feb-26 00:33N 51°54' E 004°20'0 0.0
2017-Feb-25 23:29N 51°54' E 004°20'0 0.0
2017-Feb-25 22:33N 51°54' E 004°20'0 0.0
2017-Feb-25 21:28N 51°54' E 004°20'0 0.0
2017-Feb-25 20:30N 51°54' E 004°20'0 0.0
2017-Feb-25 19:29N 51°54' E 004°20'0 0.0
2017-Feb-25 18:33N 51°54' E 004°20'0 0.0
2017-Feb-25 17:27N 51°54' E 004°20'0 0.0
2017-Feb-25 16:32N 51°54' E 004°20'0 0.0
2017-Feb-25 15:28N 51°54' E 004°20'0 0.0
2017-Feb-25 14:31N 51°54' E 004°20'0 0.0
2017-Feb-25 13:29N 51°54' E 004°20'0 0.0
2017-Feb-25 12:30N 51°54' E 004°20'0 0.0
2017-Feb-25 11:27N 51°54' E 004°20'0 0.0
2017-Feb-25 10:30N 51°54' E 004°20'0 0.0
2017-Feb-25 09:33N 51°54' E 004°20'0 0.0
2017-Feb-25 08:33N 51°54' E 004°20'0 0.0
2017-Feb-25 07:29N 51°54' E 004°20'0 0.0
2017-Feb-25 06:32N 51°54' E 004°20'0 0.0
2017-Feb-25 05:33N 51°54' E 004°20'0 0.0
2017-Feb-25 04:30N 51°54' E 004°20'0 0.0
2017-Feb-25 03:28N 51°54' E 004°20'0 0.0
2017-Feb-25 02:32N 51°54' E 004°20'0 0.0
2017-Feb-25 01:33N 51°54' E 004°20'0 0.0
2017-Feb-25 00:33N 51°54' E 004°20'0 0.0
2017-Feb-24 23:33N 51°54' E 004°20'0 0.0
2017-Feb-24 22:32N 51°54' E 004°20'0 0.0
2017-Feb-24 21:28N 51°54' E 004°20'0 0.0
2017-Feb-24 20:33N 51°54' E 004°20'0 0.0
2017-Feb-24 19:27N 51°54' E 004°20'0 0.0
2017-Feb-24 18:31N 51°54' E 004°20'0 0.0
2017-Feb-24 17:31N 51°54' E 004°20'0 0.0
2017-Feb-24 16:32N 51°54' E 004°20'0 0.0
2017-Feb-24 15:26N 51°54' E 004°20'0 0.0
2017-Feb-24 14:31N 51°54' E 004°20'0 0.0
2017-Feb-24 13:33N 51°54' E 004°20'1 0.9
2017-Feb-24 12:33N 51°54' E 004°18'7 7.0
2017-Feb-24 11:33N 51°58' E 004°09'9 8.8
2017-Feb-24 10:33N 52°00' E 003°55'61 5.6
2017-Feb-23 23:30N 51°35' E 002°24'7 7.1
2017-Feb-23 22:33N 51°30' E 002°18'6 6.6
2017-Feb-23 21:34N 51°24' E 002°13'13 6.2
2017-Feb-23 19:33N 51°14' E 002°02'7 6.6
2017-Feb-23 18:33N 51°09' E 001°54'138 8.4
2017-Feb-23 02:04N 50°04' W 001°17'4 7.5
2017-Feb-23 01:33N 50°03' W 001°23'7 7.0
2017-Feb-23 00:33N 50°01' W 001°33'6 6.4
2017-Feb-22 23:34N 49°59' W 001°43'6 6.3
2017-Feb-22 22:33N 49°58' W 001°52'  
2017-Feb-19 05:05N 39°17' W 009°49'7 6.9
2017-Feb-19 04:04N 39°10' W 009°50'4 7.2
2017-Feb-19 03:33N 39°06' W 009°50'8 7.9
2017-Feb-19 02:33N 38°58' W 009°50'8 8.1
2017-Feb-19 01:33N 38°50' W 009°50'8 8.1
2017-Feb-19 00:33N 38°42' W 009°49'9 8.6
2017-Feb-18 23:33N 38°33' W 009°47'250 7.9
2017-Feb-17 16:06N 35°58' W 005°42'8 9.7
2017-Feb-17 15:14N 35°59' W 005°32'6 9.4
2017-Feb-17 14:33N 36°00' W 005°24'  
Track history (hours):
 
Tides and Currents Weather Stations Pressure Air Temp Water Temp Dewpoint Dewpoint Depression Visibility Wind Speed Wind Dir Waves Ship Positions

Marcel

Last reported at 2017-Feb-26 10:30 UTC. Time now 2017-Feb-26 10:34 UTC.
Position N 51°54' E 004°20'.

Length 88 m; draft 5.5 m.

Type: Cargo ship. MMSI: 205439000.

Date/timePositionNaut miles runAvg speedWind from/ knotsBaromVisibWave heightAir tempDewpointWater temp
2017-Feb-26 10:30N 51°54' E 004°20'0 0.0
2017-Feb-26 09:27N 51°54' E 004°20'0 0.0
2017-Feb-26 08:33N 51°54' E 004°20'0 0.0
2017-Feb-26 07:29N 51°54' E 004°20'0 0.0
2017-Feb-26 06:30N 51°54' E 004°20'0 0.0
2017-Feb-26 05:33N 51°54' E 004°20'0 0.0
2017-Feb-26 04:32N 51°54' E 004°20'0 0.0
2017-Feb-26 03:29N 51°54' E 004°20'0 0.0
2017-Feb-26 02:32N 51°54' E 004°20'0 0.0
2017-Feb-26 01:32N 51°54' E 004°20'0 0.0
2017-Feb-26 00:33N 51°54' E 004°20'0 0.0
2017-Feb-25 23:29N 51°54' E 004°20'0 0.0
2017-Feb-25 22:33N 51°54' E 004°20'0 0.0
2017-Feb-25 21:28N 51°54' E 004°20'0 0.0
2017-Feb-25 20:30N 51°54' E 004°20'0 0.0
2017-Feb-25 19:29N 51°54' E 004°20'0 0.0
2017-Feb-25 18:33N 51°54' E 004°20'0 0.0
2017-Feb-25 17:27N 51°54' E 004°20'0 0.0
2017-Feb-25 16:32N 51°54' E 004°20'0 0.0
2017-Feb-25 15:28N 51°54' E 004°20'0 0.0
2017-Feb-25 14:31N 51°54' E 004°20'0 0.0
2017-Feb-25 13:29N 51°54' E 004°20'0 0.0
2017-Feb-25 12:30N 51°54' E 004°20'0 0.0
2017-Feb-25 11:27N 51°54' E 004°20'0 0.0
2017-Feb-25 10:30N 51°54' E 004°20'0 0.0
2017-Feb-25 09:33N 51°54' E 004°20'0 0.0
2017-Feb-25 08:33N 51°54' E 004°20'0 0.0
2017-Feb-25 07:29N 51°54' E 004°20'0 0.0
2017-Feb-25 06:32N 51°54' E 004°20'0 0.0
2017-Feb-25 05:33N 51°54' E 004°20'0 0.0
2017-Feb-25 04:30N 51°54' E 004°20'0 0.0
2017-Feb-25 03:28N 51°54' E 004°20'0 0.0
2017-Feb-25 02:32N 51°54' E 004°20'0 0.0
2017-Feb-25 01:33N 51°54' E 004°20'0 0.0
2017-Feb-25 00:33N 51°54' E 004°20'0 0.0
2017-Feb-24 23:33N 51°54' E 004°20'0 0.0
2017-Feb-24 22:32N 51°54' E 004°20'0 0.0
2017-Feb-24 21:28N 51°54' E 004°20'0 0.0
2017-Feb-24 20:33N 51°54' E 004°20'0 0.0
2017-Feb-24 19:27N 51°54' E 004°20'0 0.0
2017-Feb-24 18:31N 51°54' E 004°20'0 0.0
2017-Feb-24 17:31N 51°54' E 004°20'0 0.0
2017-Feb-24 16:32N 51°54' E 004°20'0 0.0
2017-Feb-24 15:26N 51°54' E 004°20'0 0.0
2017-Feb-24 14:31N 51°54' E 004°20'0 0.0
2017-Feb-24 13:33N 51°54' E 004°20'1 0.9
2017-Feb-24 12:33N 51°54' E 004°18'7 7.0
2017-Feb-24 11:33N 51°58' E 004°09'9 8.8
2017-Feb-24 10:33N 52°00' E 003°55'61 5.6
2017-Feb-23 23:30N 51°35' E 002°24'7 7.1
2017-Feb-23 22:33N 51°30' E 002°18'6 6.6
2017-Feb-23 21:34N 51°24' E 002°13'13 6.2
2017-Feb-23 19:33N 51°14' E 002°02'7 6.6
2017-Feb-23 18:33N 51°09' E 001°54'138 8.4
2017-Feb-23 02:04N 50°04' W 001°17'4 7.5
2017-Feb-23 01:33N 50°03' W 001°23'7 7.0
2017-Feb-23 00:33N 50°01' W 001°33'6 6.4
2017-Feb-22 23:34N 49°59' W 001°43'6 6.3
2017-Feb-22 22:33N 49°58' W 001°52'  
2017-Feb-19 05:05N 39°17' W 009°49'7 6.9
2017-Feb-19 04:04N 39°10' W 009°50'4 7.2
2017-Feb-19 03:33N 39°06' W 009°50'8 7.9
2017-Feb-19 02:33N 38°58' W 009°50'8 8.1
2017-Feb-19 01:33N 38°50' W 009°50'8 8.1
2017-Feb-19 00:33N 38°42' W 009°49'9 8.6
2017-Feb-18 23:33N 38°33' W 009°47'250 7.9
2017-Feb-17 16:06N 35°58' W 005°42'8 9.7
2017-Feb-17 15:14N 35°59' W 005°32'6 9.4
2017-Feb-17 14:33N 36°00' W 005°24'  

Dump ship's entire track history